Weather observations for the past three days for
Burbank - Bob Hope Airport
Imperial (Metric)
Date Time (pdt) Wind (mph) Vis. (mi.) Weather Sky Cond. Temperature (ºF) Relative Humidity Wind Chill (°F) Heat Index (°F) Pressure Precipitation (in)
Air Dwpt 6 hour altimeter (in) sea level (mb) 1 hr 3 hr 6 hr
Max. Min.
05 02:53 NW 3 10.00 Overcast BKN046 OVC080 57 44.1 62% 29.93 1012.7
05 01:53 N 6 10.00 Overcast SCT035 BKN060 OVC080 55.9 48.9 77% 29.95 1013.4
05 00:53 N 8 10.00 Overcast SCT024 OVC029 57 48.9 74% 29.96 1013.7
04 23:53 S 3 10.00 Overcast SCT028 OVC055 57.9 50 75% 29.97 1013.8
04 22:53 S 5 10.00 Overcast SCT028 BKN033 OVC055 57.9 48.9 66 57.9 72% 29.97 1013.9
04 21:53 S 5 10.00 Overcast BKN033 OVC060 57.9 48 70% 29.98 1014.2
04 20:53 S 7 10.00 Overcast FEW037 OVC080 57.9 46.9 67% 29.97 1014.2
04 19:53 S 9 10.00 Overcast OVC050 59 46 62% 29.96 1013.6
04 18:53 S 8 10.00 Mostly Cloudy BKN080 62.1 46 56% 29.95 1013.3
04 17:53 S 15 10.00 Overcast BKN040 OVC070 63 46 54% 29.95 1013.4
04 16:53 S 12 10.00 Mostly Cloudy SCT040 BKN080 64.9 48 66.9 61 54% 29.95 1013.1
04 15:53 SW 13 10.00 Overcast FEW049 OVC080 64.9 46.9 52% 29.96 1013.5
04 14:53 S 13 G 18 10.00 Overcast OVC080 64 46.9 54% 29.98 1014.3
04 13:53 SW 12 10.00 Mostly Cloudy FEW060 BKN075 66 44.1 45% 29.98 1014.1
04 12:53 SE 10 10.00 Overcast OVC075 64.9 44.1 47% 29.98 1014.3
04 11:53 S 10 10.00 Mostly Cloudy FEW041 BKN070 63 46 54% 30 1014.8
04 10:53 E 8 10.00 Mostly Cloudy SCT034 BKN043 BKN065 62.1 46 62.1 55.9 56% 30 1014.8
04 09:53 Vrbl 3 10.00 Mostly Cloudy FEW019 SCT026 BKN050 61 48 63% 29.99 1014.7
04 08:53 SE 6 10.00 Mostly Cloudy FEW019 SCT024 BKN042 57.9 48 70% 29.98 1014.4
04 07:53 S 10 10.00 Fair CLR 57.9 48.9 72% 29.97 1014.1
04 06:53 S 5 10.00 Fair CLR 55.9 50 81% 29.96 1013.8
04 05:53 SE 5 10.00 Overcast OVC055 55.9 50 81% 29.97 1013.8
04 04:53 E 6 10.00 Overcast OVC049 57 51.1 57.9 55.9 81% 29.96 1013.8
04 03:53 S 6 10.00 Overcast OVC050 57 50 78% 29.95 1013.2
04 02:53 SE 5 10.00 Overcast OVC050 57 50 78% 29.95 1013.4
04 01:53 E 5 10.00 Overcast OVC050 57.9 48.9 72% 29.97 1013.9
04 00:53 E 6 10.00 Overcast FEW040 OVC050 57.9 48.9 72% 29.99 1014.5
03 23:53 S 5 10.00 Overcast OVC047 57 48 72% 29.99 1014.6
03 22:53 SE 5 10.00 Mostly Cloudy FEW027 BKN042 57.9 48 64 57.9 70% 29.96 1013.7
03 21:53 S 7 10.00 Mostly Cloudy SCT042 BKN055 57.9 48 70% 29.97 1014.1
03 20:53 S 9 10.00 Overcast BKN042 OVC050 59 46.9 64% 29.96 1013.5
03 19:53 SE 8 10.00 Overcast OVC041 59 46 62% 29.94 1012.9
03 18:53 S 9 10.00 Overcast BKN038 OVC050 61 46 58% 29.92 1012.3
03 17:53 S 8 10.00 Overcast SCT041 OVC049 63 46 54% 29.91 1011.9
03 16:53 S 6 10.00 Overcast OVC036 63 46.9 64 57 56% 29.91 1011.9
03 15:53 Vrbl 5 10.00 Overcast OVC035 64 46 52% 29.92 1012.2
03 14:53 SW 8 10.00 Overcast OVC030 62.1 48 60% 29.94 1012.9
03 13:53 SW 7 10.00 Overcast OVC026 61 48.9 65% 29.94 1012.9
03 12:53 E 7 6.00 Overcast with Haze OVC025 61 53.1 75% 29.95 1013.2
03 11:53 E 6 5.00 Overcast with Haze OVC023 57.9 53.1 84% 29.96 1013.7
03 10:53 SW 3 5.00 Overcast with Haze OVC017 57 52 59 55.9 83% 29.98 1014.4
03 09:53 SW 6 3.00 Fog/Mist OVC007 55.9 54 93% 29.96 1013.6
03 08:53 S 8 2.00 Fog/Mist OVC010 57 55 93% 29.94 1013.1
03 07:53 Vrbl 7 4.00 Overcast with Haze OVC018 57.9 52 81% 29.93 1012.7
03 06:53 SE 5 5.00 Overcast with Haze OVC014 57.9 52 81% 29.92 1012.2
03 05:53 Calm 10.00 Overcast OVC016 57.9 51.1 78% 29.91 1011.8
03 04:53 S 3 10.00 Overcast OVC015 57.9 51.1 59 57.9 78% 29.9 1011.3
03 03:53 SW 6 10.00 Overcast OVC016 57.9 52 81% 29.91 1011.8
03 02:53 S 6 10.00 Overcast OVC013 57.9 52 81% 29.91 1011.9
03 01:53 S 8 10.00 Overcast OVC010 57.9 53.1 84% 29.93 1012.2
03 00:53 S 7 10.00 Overcast OVC009 57.9 54 87% 29.92 1012.2
02 23:53 S 7 10.00 Overcast OVC010 57.9 54 87% 29.9 1011.7
02 22:53 S 5 10.00 Partly Cloudy SCT010 57.9 55 75 57.9 90% 29.91 1011.9
02 21:53 S 7 10.00 Fair CLR 59 55 87% 29.91 1011.9
02 20:53 S 12 10.00 Fair CLR 62.1 55 78% 29.88 1010.8
02 19:53 SE 10 10.00 Fair CLR 64 55 73% 29.85 1009.9
02 18:53 S 10 10.00 Fair CLR 66.9 55 66% 29.83 1009.3
02 17:53 S 9 10.00 Fair CLR 72 55 55% 29.83 1008.9
02 16:53 S 10 10.00 Fair CLR 75 55.9 75.9 63 52% 78 29.83 1009.1
02 15:53 S 9 10.00 Fair CLR 75 55.9 52% 78 29.85 1009.6
02 14:53 S 10 10.00 Fair CLR 73.9 57 56% 29.88 1010.8
02 13:53 Vrbl 5 5.00 Fair with Haze CLR 75.9 57 52% 78 29.9 1011.4
02 12:53 SE 3 5.00 Fair with Haze CLR 71.1 55.9 59% 29.92 1012.3
02 11:53 SW 6 3.00 Partly Cloudy with Haze SCT013 66.9 55.9 68% 29.95 1013.3
02 10:53 Calm 3.00 Mostly Cloudy with Haze BKN011 63 55.9 63 55 78% 29.97 1013.9
02 09:53 S 3 2.00 Fog/Mist OVC007 59 55 87% 29.98 1014.3
02 08:53 S 8 2.00 Fog/Mist OVC008 57.9 54 87% 29.98 1014.1
02 07:53 Calm 2.00 Fog/Mist OVC006 57 55 93% 29.97 1013.9
02 06:53 Calm 2.00 Fog/Mist OVC005 55.9 55 97% 29.96 1013.7
02 05:53 S 5 2.00 Fog/Mist OVC007 55.9 54 93% 29.95 1013.1
02 04:53 S 3 8.00 Fair CLR 55.9 53.1 60.1 55.9 90% 29.94 1012.7
02 03:53 Calm 10.00 Fair CLR 57 54 90% 29.92 1012.1
Date Time (pdt) Wind (mph) Vis. (mi.) Weather Sky Cond. Air Dwpt Max. Min. Relative Humidity Wind Chill (°F) Heat Index (°F) altimeter (in) sea level (mb) 1 hr 3 hr 6 hr
6 hour
Temperature (ºF) Pressure Precipitation (in)